Time;durP1;ratioP1;P1;durP2;ratioP2;P2;SDS_P1;SDS_P2;PMS_P1;PMS_P2;Temp;Humidity;BMP_temperature;BMP_pressure;BME280_temperature;BME280_humidity;BME280_pressure;Samples;Min_cycle;Max_cycle;Signal;HPM_P1;HPM_P2
2021/07/03 00:01:15;;;;;;;5.63;3.28;;;;;;;;;;4995292;28;20023;-68
2021/07/03 00:03:41;;;;;;;5.25;3.40;;;;;;;;;;4990748;28;20029;-68
2021/07/03 00:06:07;;;;;;;7.47;3.50;;;;;;;;;;4984263;28;20034;-68
2021/07/03 00:08:33;;;;;;;4.95;3.30;;;;;;;;;;4992682;28;20025;-68
2021/07/03 00:11:00;;;;;;;8.15;3.80;;;;;;;;;;4991364;28;20034;-68
2021/07/03 00:13:26;;;;;;;5.18;3.22;;;;;;;;;;4992695;28;20105;-68
2021/07/03 00:15:52;;;;;;;4.47;3.30;;;;;;;;;;4992089;28;20169;-68
2021/07/03 00:18:20;;;;;;;5.57;3.15;;;;;;;;;;4991109;28;20042;-68
2021/07/03 00:20:47;;;;;;;5.95;3.42;;;;;;;;;;4990897;28;20044;-68
2021/07/03 00:23:13;;;;;;;5.30;3.55;;;;;;;;;;4991311;28;20062;-68
2021/07/03 00:25:39;;;;;;;4.60;3.42;;;;;;;;;;4992127;28;20022;-68
2021/07/03 00:28:06;;;;;;;7.50;3.40;;;;;;;;;;4990190;28;20084;-68
2021/07/03 00:30:32;;;;;;;4.13;3.45;;;;;;;;;;4992528;28;20026;-68
2021/07/03 00:32:58;;;;;;;5.07;3.75;;;;;;;;;;4980717;28;20026;-68
2021/07/03 00:35:24;;;;;;;6.70;3.50;;;;;;;;;;4983982;28;20041;-68
2021/07/03 00:37:50;;;;;;;4.75;3.50;;;;;;;;;;4990728;28;20062;-67
2021/07/03 00:40:17;;;;;;;7.53;3.67;;;;;;;;;;4990901;28;20050;-68
2021/07/03 00:42:43;;;;;;;4.72;3.50;;;;;;;;;;4992514;28;20031;-68
2021/07/03 00:45:10;;;;;;;5.05;3.63;;;;;;;;;;4993232;28;20034;-68
2021/07/03 00:47:36;;;;;;;5.80;3.60;;;;;;;;;;4996453;28;20027;-68
2021/07/03 00:50:04;;;;;;;4.95;3.55;;;;;;;;;;4995661;28;20025;-68
2021/07/03 00:52:30;;;;;;;6.53;3.90;;;;;;;;;;4994585;28;20384;-68
2021/07/03 00:54:56;;;;;;;5.47;3.47;;;;;;;;;;4995128;28;20022;-67
2021/07/03 00:57:22;;;;;;;4.63;3.55;;;;;;;;;;4995348;28;20441;-68
2021/07/03 00:59:49;;;;;;;5.00;3.58;;;;;;;;;;4995350;28;20026;-68
2021/07/03 01:02:16;;;;;;;5.93;3.75;;;;;;;;;;4994589;28;20057;-68
2021/07/03 01:04:42;;;;;;;5.05;3.55;;;;;;;;;;4996028;28;20046;-68
2021/07/03 01:07:22;;;;;;;6.72;4.05;;;;;;;;;;4996618;28;20018;-70
2021/07/03 01:09:50;;;;;;;6.90;3.42;;;;;;;;;;5000485;28;20122;-68
2021/07/03 01:12:16;;;;;;;4.72;3.42;;;;;;;;;;4991039;28;20472;-67
2021/07/03 01:14:51;;;;;;;4.47;3.50;;;;;;;;;;4995927;28;20498;-68
2021/07/03 01:17:18;;;;;;;4.78;3.70;;;;;;;;;;4995728;28;20037;-68
2021/07/03 01:19:44;;;;;;;6.10;3.63;;;;;;;;;;4995833;28;20061;-68
2021/07/03 01:22:12;;;;;;;5.00;3.65;;;;;;;;;;4983184;28;20085;-69
2021/07/03 01:24:38;;;;;;;4.40;3.47;;;;;;;;;;4993961;28;20113;-68
2021/07/03 01:27:05;;;;;;;5.53;3.50;;;;;;;;;;4992054;28;20035;-68
2021/07/03 01:29:32;;;;;;;4.03;3.25;;;;;;;;;;4992732;28;20023;-68
2021/07/03 01:31:58;;;;;;;6.95;3.60;;;;;;;;;;4993155;28;20049;-68
2021/07/03 01:34:28;;;;;;;8.00;3.90;;;;;;;;;;4995577;28;20030;-68
2021/07/03 01:36:55;;;;;;;6.35;3.78;;;;;;;;;;4992319;28;20045;-68
2021/07/03 01:39:21;;;;;;;6.45;3.67;;;;;;;;;;4994620;28;20034;-69
2021/07/03 01:41:47;;;;;;;5.22;3.33;;;;;;;;;;4993724;28;20113;-73
2021/07/03 01:44:17;;;;;;;4.30;3.38;;;;;;;;;;4997858;28;20115;-70
2021/07/03 01:46:55;;;;;;;6.03;3.42;;;;;;;;;;5000103;28;20019;-69
2021/07/03 01:49:21;;;;;;;5.57;3.90;;;;;;;;;;4995300;28;20026;-67
2021/07/03 01:51:47;;;;;;;4.80;3.33;;;;;;;;;;4987235;28;20035;-68
2021/07/03 01:54:13;;;;;;;4.97;3.67;;;;;;;;;;4994452;28;20149;-67
2021/07/03 01:56:41;;;;;;;5.30;3.67;;;;;;;;;;4992944;28;20060;-67
2021/07/03 01:59:07;;;;;;;5.45;3.50;;;;;;;;;;4993510;28;20084;-69
2021/07/03 02:01:34;;;;;;;5.38;3.33;;;;;;;;;;4993137;28;20026;-68
2021/07/03 02:04:00;;;;;;;5.57;3.60;;;;;;;;;;4994022;28;20472;-68
2021/07/03 02:06:26;;;;;;;5.43;3.50;;;;;;;;;;4995173;28;20030;-68
2021/07/03 02:08:52;;;;;;;7.13;3.75;;;;;;;;;;4998723;28;20022;-67
2021/07/03 02:11:18;;;;;;;5.55;3.60;;;;;;;;;;4994629;28;20033;-70
2021/07/03 02:13:44;;;;;;;5.30;3.70;;;;;;;;;;4982062;28;20030;-74
2021/07/03 02:16:10;;;;;;;5.68;3.88;;;;;;;;;;4997732;28;20042;-69
2021/07/03 02:18:36;;;;;;;5.53;3.75;;;;;;;;;;4995233;28;20515;-70
2021/07/03 02:21:03;;;;;;;5.25;3.70;;;;;;;;;;4992743;28;20095;-69
2021/07/03 02:23:29;;;;;;;5.00;3.80;;;;;;;;;;4991073;28;20058;-69
2021/07/03 02:25:55;;;;;;;4.88;3.53;;;;;;;;;;4986249;28;20019;-68
2021/07/03 02:28:21;;;;;;;5.72;3.90;;;;;;;;;;4987241;28;20026;-69
2021/07/03 02:30:47;;;;;;;4.63;3.70;;;;;;;;;;4994838;28;20034;-68
2021/07/03 02:33:13;;;;;;;5.07;3.20;;;;;;;;;;4974931;28;20031;-68
2021/07/03 02:35:39;;;;;;;5.13;3.50;;;;;;;;;;4992068;28;20034;-68
2021/07/03 02:38:06;;;;;;;3.72;3.22;;;;;;;;;;4994257;28;20030;-68
2021/07/03 02:40:32;;;;;;;5.95;3.70;;;;;;;;;;4993066;28;20030;-68
2021/07/03 02:42:58;;;;;;;4.90;3.33;;;;;;;;;;4993541;28;20027;-67
2021/07/03 02:45:24;;;;;;;4.90;3.33;;;;;;;;;;4993296;28;20395;-67
2021/07/03 02:47:50;;;;;;;4.35;3.65;;;;;;;;;;4994227;28;20368;-68
2021/07/03 02:50:18;;;;;;;5.35;3.60;;;;;;;;;;4981255;28;20105;-68
2021/07/03 02:52:44;;;;;;;4.65;3.50;;;;;;;;;;4987784;28;20045;-68
2021/07/03 02:55:11;;;;;;;5.18;3.50;;;;;;;;;;4989429;28;20033;-68
2021/07/03 02:57:42;;;;;;;4.95;3.70;;;;;;;;;;4994097;28;20041;-68
2021/07/03 03:00:09;;;;;;;5.63;3.67;;;;;;;;;;4993945;28;20046;-68
2021/07/03 03:02:36;;;;;;;5.07;3.70;;;;;;;;;;4992335;28;20034;-67
2021/07/03 03:05:03;;;;;;;5.32;3.65;;;;;;;;;;4991802;28;20046;-68
2021/07/03 03:07:29;;;;;;;4.18;3.40;;;;;;;;;;4993646;28;20085;-68
2021/07/03 03:09:55;;;;;;;6.35;3.50;;;;;;;;;;4995726;28;20027;-68
2021/07/03 03:12:21;;;;;;;7.57;3.60;;;;;;;;;;4987733;28;20472;-69
2021/07/03 03:14:47;;;;;;;6.03;3.58;;;;;;;;;;4990374;28;20027;-68
2021/07/03 03:17:13;;;;;;;4.93;3.45;;;;;;;;;;4978979;28;20088;-68
2021/07/03 03:19:39;;;;;;;4.78;3.60;;;;;;;;;;4993840;28;20022;-68
2021/07/03 03:22:05;;;;;;;7.88;3.72;;;;;;;;;;4991330;28;20036;-68
2021/07/03 03:24:31;;;;;;;4.65;3.45;;;;;;;;;;4993566;28;20018;-68
2021/07/03 03:26:59;;;;;;;5.07;3.60;;;;;;;;;;4991989;28;20030;-68
2021/07/03 03:29:25;;;;;;;4.43;3.65;;;;;;;;;;4993406;28;20535;-68
2021/07/03 03:31:51;;;;;;;4.07;3.35;;;;;;;;;;4990829;28;20499;-68
2021/07/03 03:34:17;;;;;;;5.68;3.60;;;;;;;;;;4992812;28;20088;-67
2021/07/03 03:36:43;;;;;;;5.57;3.50;;;;;;;;;;4991562;28;20026;-68
2021/07/03 03:39:13;;;;;;;5.30;3.22;;;;;;;;;;4998647;28;20038;-70
2021/07/03 03:41:41;;;;;;;4.53;3.45;;;;;;;;;;4990992;28;20081;-66
2021/07/03 03:44:07;;;;;;;4.03;3.28;;;;;;;;;;4989288;28;20037;-68
2021/07/03 03:46:34;;;;;;;6.45;3.67;;;;;;;;;;4990238;28;20053;-68
2021/07/03 03:49:00;;;;;;;5.97;3.40;;;;;;;;;;4992361;28;20027;-68
2021/07/03 03:51:26;;;;;;;4.35;3.50;;;;;;;;;;4998851;28;20030;-68
2021/07/03 03:53:52;;;;;;;6.30;3.70;;;;;;;;;;4991586;28;20030;-68
2021/07/03 03:56:18;;;;;;;6.40;3.80;;;;;;;;;;4978198;28;20101;-68
2021/07/03 03:58:45;;;;;;;4.93;3.58;;;;;;;;;;4998093;28;20046;-68
2021/07/03 04:01:11;;;;;;;5.50;3.30;;;;;;;;;;4991444;28;20077;-68
2021/07/03 04:03:37;;;;;;;4.05;3.42;;;;;;;;;;4989442;28;20085;-69
2021/07/03 04:06:03;;;;;;;3.83;3.20;;;;;;;;;;4992777;28;20050;-68
2021/07/03 04:08:30;;;;;;;4.65;3.00;;;;;;;;;;4993065;28;20117;-70
2021/07/03 04:10:56;;;;;;;4.75;3.70;;;;;;;;;;4991619;28;20018;-68
2021/07/03 04:13:22;;;;;;;4.30;3.40;;;;;;;;;;4993108;28;20026;-68
2021/07/03 04:15:48;;;;;;;5.05;3.40;;;;;;;;;;4985923;28;20369;-68
2021/07/03 04:18:14;;;;;;;4.32;3.55;;;;;;;;;;4993179;28;20049;-69
2021/07/03 04:20:41;;;;;;;3.85;3.35;;;;;;;;;;4994195;28;20085;-68
2021/07/03 04:23:08;;;;;;;4.53;3.53;;;;;;;;;;4995378;28;20491;-68
2021/07/03 04:25:34;;;;;;;6.45;3.92;;;;;;;;;;4986329;28;20515;-67
2021/07/03 04:28:00;;;;;;;5.72;3.15;;;;;;;;;;4989250;28;20096;-68
2021/07/03 04:30:27;;;;;;;6.25;3.70;;;;;;;;;;4992870;28;20018;-67
2021/07/03 04:32:53;;;;;;;4.45;3.38;;;;;;;;;;4991891;28;20077;-68
2021/07/03 04:35:19;;;;;;;5.72;3.30;;;;;;;;;;4990299;28;20039;-67
2021/07/03 04:37:47;;;;;;;4.38;3.35;;;;;;;;;;4998325;28;20400;-72
2021/07/03 04:40:13;;;;;;;4.25;3.20;;;;;;;;;;4988768;28;20039;-66
2021/07/03 04:42:40;;;;;;;6.07;3.95;;;;;;;;;;4990247;28;20431;-67
2021/07/03 04:45:06;;;;;;;4.40;3.33;;;;;;;;;;4985658;28;20026;-67
2021/07/03 04:47:32;;;;;;;7.30;3.47;;;;;;;;;;4990938;28;20162;-66
2021/07/03 04:49:58;;;;;;;4.63;3.53;;;;;;;;;;4985471;28;20030;-70
2021/07/03 04:52:26;;;;;;;5.28;3.47;;;;;;;;;;4985036;28;20030;-66
2021/07/03 04:54:52;;;;;;;4.25;3.40;;;;;;;;;;4988049;28;20027;-68
2021/07/03 04:57:18;;;;;;;5.28;3.60;;;;;;;;;;4988891;28;20030;-65
2021/07/03 04:59:44;;;;;;;4.85;3.35;;;;;;;;;;4986154;28;20531;-69
2021/07/03 05:02:12;;;;;;;4.78;3.40;;;;;;;;;;4980452;28;20038;-68
2021/07/03 05:04:44;;;;;;;5.85;3.58;;;;;;;;;;4983066;28;20721;-71
2021/07/03 05:07:10;;;;;;;7.05;3.78;;;;;;;;;;4986062;28;20170;-70
2021/07/03 05:09:36;;;;;;;7.70;3.40;;;;;;;;;;4985881;28;20026;-64
2021/07/03 05:12:03;;;;;;;4.88;3.42;;;;;;;;;;4986383;28;20085;-66
2021/07/03 05:14:29;;;;;;;4.95;3.35;;;;;;;;;;4986929;28;20030;-67
2021/07/03 05:16:55;;;;;;;6.28;3.50;;;;;;;;;;4988193;28;20023;-65
2021/07/03 05:19:23;;;;;;;178.48;91.80;;;;;;;;;;4984427;28;20034;-71
2021/07/03 05:21:50;;;;;;;10.32;7.53;;;;;;;;;;4961660;28;20121;-69
2021/07/03 05:24:16;;;;;;;5.65;3.92;;;;;;;;;;4982011;28;20035;-71
2021/07/03 05:26:45;;;;;;;5.93;4.68;;;;;;;;;;4991206;28;20464;-67
2021/07/03 05:29:11;;;;;;;8.15;4.15;;;;;;;;;;4990099;28;20034;-68
2021/07/03 05:31:43;;;;;;;5.45;3.60;;;;;;;;;;4979169;28;20142;-83
2021/07/03 05:34:43;;;;;;;4.43;3.33;;;;;;;;;;4993725;28;20027;-86
2021/07/03 05:37:45;;;;;;;6.28;3.45;;;;;;;;;;4998647;28;20084;-84
2021/07/03 05:40:13;;;;;;;4.38;3.70;;;;;;;;;;4990915;28;20026;-82
2021/07/03 05:42:39;;;;;;;4.85;3.47;;;;;;;;;;4980618;28;20038;-82
2021/07/03 05:45:06;;;;;;;5.75;3.40;;;;;;;;;;4982442;28;20026;-84
2021/07/03 05:47:32;;;;;;;5.22;3.42;;;;;;;;;;4982091;28;20034;-81
2021/07/03 05:49:58;;;;;;;7.43;3.50;;;;;;;;;;4985986;28;20037;-69
2021/07/03 05:52:24;;;;;;;5.68;3.50;;;;;;;;;;4985315;28;20058;-65
2021/07/03 05:54:51;;;;;;;5.38;3.40;;;;;;;;;;4992979;28;20031;-72
2021/07/03 05:57:17;;;;;;;5.10;3.53;;;;;;;;;;4992696;28;20020;-66
2021/07/03 05:59:43;;;;;;;5.72;3.50;;;;;;;;;;4987875;28;20030;-73
2021/07/03 06:02:11;;;;;;;7.28;3.60;;;;;;;;;;4991313;28;20057;-67
2021/07/03 06:04:37;;;;;;;5.60;3.50;;;;;;;;;;4990249;28;20079;-68
2021/07/03 06:07:03;;;;;;;5.68;3.38;;;;;;;;;;4990082;28;20092;-67
2021/07/03 06:09:29;;;;;;;4.78;3.28;;;;;;;;;;4984120;28;20035;-68
2021/07/03 06:11:55;;;;;;;5.28;3.30;;;;;;;;;;4984969;28;20026;-67
2021/07/03 06:14:21;;;;;;;7.43;3.85;;;;;;;;;;4994781;28;20030;-67
2021/07/03 06:17:00;;;;;;;6.32;3.80;;;;;;;;;;4992722;28;20440;-69
2021/07/03 06:19:26;;;;;;;6.13;3.72;;;;;;;;;;4991071;28;20047;-68
2021/07/03 06:21:52;;;;;;;4.80;3.35;;;;;;;;;;4975922;28;20459;-71
2021/07/03 06:24:32;;;;;;;4.68;3.58;;;;;;;;;;4993822;28;20092;-71
2021/07/03 06:27:14;;;;;;;5.70;3.30;;;;;;;;;;4990765;28;20488;-84
2021/07/03 06:29:40;;;;;;;5.18;3.92;;;;;;;;;;4986483;28;20042;-73
2021/07/03 06:32:08;;;;;;;10.35;3.90;;;;;;;;;;4990036;28;20026;-75
2021/07/03 06:34:35;;;;;;;4.63;3.72;;;;;;;;;;4988669;28;20034;-88
2021/07/03 06:37:01;;;;;;;7.43;3.50;;;;;;;;;;4975365;28;20030;-85
2021/07/03 06:39:27;;;;;;;4.63;3.40;;;;;;;;;;4967191;28;20489;-70
2021/07/03 06:41:53;;;;;;;8.48;4.18;;;;;;;;;;4987897;28;20076;-69
2021/07/03 06:44:19;;;;;;;12.13;3.75;;;;;;;;;;4989536;28;20117;-68
2021/07/03 06:46:48;;;;;;;9.10;3.92;;;;;;;;;;4988680;28;20080;-71
2021/07/03 06:49:15;;;;;;;4.97;3.47;;;;;;;;;;4988441;28;20031;-67
2021/07/03 06:51:41;;;;;;;7.40;3.80;;;;;;;;;;4993893;28;20077;-67
2021/07/03 06:54:07;;;;;;;7.32;3.83;;;;;;;;;;4986681;28;20023;-66
2021/07/03 06:56:33;;;;;;;9.75;4.18;;;;;;;;;;4992717;28;20037;-69
2021/07/03 06:58:59;;;;;;;7.57;3.97;;;;;;;;;;4987594;28;20060;-68
2021/07/03 07:01:25;;;;;;;6.20;4.00;;;;;;;;;;4989961;28;20030;-71
2021/07/03 07:03:51;;;;;;;4.63;3.47;;;;;;;;;;4991270;28;20038;-68
2021/07/03 07:06:18;;;;;;;8.38;3.90;;;;;;;;;;4989018;28;20463;-70
2021/07/03 07:08:44;;;;;;;7.03;4.07;;;;;;;;;;4990043;28;20026;-70
2021/07/03 07:11:10;;;;;;;5.13;3.85;;;;;;;;;;4989941;28;20499;-69
2021/07/03 07:13:36;;;;;;;6.55;3.45;;;;;;;;;;4990162;28;20031;-66
2021/07/03 07:16:02;;;;;;;8.98;4.22;;;;;;;;;;4995164;28;20029;-69
2021/07/03 07:18:30;;;;;;;6.80;3.63;;;;;;;;;;4988977;28;20062;-71
2021/07/03 07:20:56;;;;;;;7.15;3.92;;;;;;;;;;4990896;28;20066;-71
2021/07/03 07:23:22;;;;;;;4.57;3.33;;;;;;;;;;4991374;28;20034;-70
2021/07/03 07:25:50;;;;;;;5.65;3.92;;;;;;;;;;4986245;28;20031;-68
2021/07/03 07:28:16;;;;;;;5.25;3.60;;;;;;;;;;4987287;28;20018;-82
2021/07/03 07:30:42;;;;;;;4.65;3.75;;;;;;;;;;4990443;28;20098;-78
2021/07/03 07:33:09;;;;;;;6.18;3.95;;;;;;;;;;4990684;28;20081;-78
2021/07/03 07:35:35;;;;;;;6.63;4.03;;;;;;;;;;4989627;28;20105;-76
2021/07/03 07:38:03;;;;;;;4.80;3.80;;;;;;;;;;4992508;28;20510;-76
2021/07/03 07:40:29;;;;;;;4.30;3.50;;;;;;;;;;4992691;28;20058;-76
2021/07/03 07:42:55;;;;;;;8.20;3.90;;;;;;;;;;4991681;28;20044;-75
2021/07/03 07:45:22;;;;;;;4.80;3.30;;;;;;;;;;4991195;28;20031;-70
2021/07/03 07:47:48;;;;;;;5.53;4.40;;;;;;;;;;4992988;28;20068;-79
2021/07/03 07:50:23;;;;;;;7.38;3.38;;;;;;;;;;4998836;28;20089;-77
2021/07/03 07:52:49;;;;;;;7.10;3.55;;;;;;;;;;4992265;28;20034;-76
2021/07/03 07:55:15;;;;;;;8.52;3.70;;;;;;;;;;4991558;28;20053;-76
2021/07/03 07:57:41;;;;;;;5.70;3.92;;;;;;;;;;4992866;28;20035;-78
2021/07/03 08:00:08;;;;;;;6.60;3.72;;;;;;;;;;4992901;28;20515;-79
2021/07/03 08:02:34;;;;;;;6.60;3.80;;;;;;;;;;4986907;28;20030;-71
2021/07/03 08:05:00;;;;;;;6.85;3.53;;;;;;;;;;4991825;28;20054;-74
2021/07/03 08:07:26;;;;;;;5.72;3.40;;;;;;;;;;4993199;28;20018;-76
2021/07/03 08:09:52;;;;;;;5.10;3.50;;;;;;;;;;4992991;28;20124;-68
2021/07/03 08:12:18;;;;;;;7.28;3.75;;;;;;;;;;4992645;28;20011;-68
2021/07/03 08:14:44;;;;;;;7.57;3.60;;;;;;;;;;4990844;28;20545;-70
2021/07/03 08:17:10;;;;;;;5.38;3.47;;;;;;;;;;4993054;28;20362;-69
2021/07/03 08:19:38;;;;;;;4.80;3.70;;;;;;;;;;4984003;28;20157;-75
2021/07/03 08:22:06;;;;;;;5.30;3.25;;;;;;;;;;4992703;28;20380;-75
2021/07/03 08:24:32;;;;;;;5.90;3.45;;;;;;;;;;4989219;28;20026;-75
2021/07/03 08:26:59;;;;;;;4.88;3.65;;;;;;;;;;4992972;28;20061;-74
2021/07/03 08:29:25;;;;;;;8.98;3.80;;;;;;;;;;4997389;28;20102;-78
2021/07/03 08:32:05;;;;;;;5.97;3.60;;;;;;;;;;4997825;28;20030;-70
2021/07/03 08:34:31;;;;;;;6.20;3.90;;;;;;;;;;4989783;28;20030;-68
2021/07/03 08:36:58;;;;;;;6.88;3.90;;;;;;;;;;4992575;28;20455;-76
2021/07/03 08:39:24;;;;;;;7.60;3.40;;;;;;;;;;4992798;28;20387;-77
2021/07/03 08:41:59;;;;;;;8.07;3.75;;;;;;;;;;5000390;28;20465;-73
2021/07/03 08:44:25;;;;;;;6.20;3.50;;;;;;;;;;4989201;28;20053;-75
2021/07/03 08:46:52;;;;;;;6.95;3.65;;;;;;;;;;4992228;28;20064;-73
2021/07/03 08:49:20;;;;;;;7.03;3.63;;;;;;;;;;4991940;28;20610;-73
2021/07/03 08:51:47;;;;;;;6.22;3.90;;;;;;;;;;4992421;28;20507;-72
2021/07/03 08:54:13;;;;;;;11.15;3.97;;;;;;;;;;4990736;28;20069;-76
2021/07/03 08:56:39;;;;;;;8.85;4.03;;;;;;;;;;4979143;28;20058;-71
2021/07/03 08:59:15;;;;;;;5.35;3.30;;;;;;;;;;4991410;28;20042;-76
2021/07/03 09:01:51;;;;;;;7.07;3.70;;;;;;;;;;4994777;28;20420;-69
2021/07/03 09:04:17;;;;;;;9.57;3.85;;;;;;;;;;4990329;28;20038;-70
2021/07/03 09:06:43;;;;;;;6.43;3.53;;;;;;;;;;4993390;28;20027;-76
2021/07/03 09:09:09;;;;;;;5.85;3.70;;;;;;;;;;4996299;28;20034;-76
2021/07/03 09:11:37;;;;;;;7.03;3.40;;;;;;;;;;5003277;28;20074;-76
2021/07/03 09:14:07;;;;;;;4.32;3.67;;;;;;;;;;4994410;28;20066;-77
2021/07/03 09:16:36;;;;;;;3.70;3.30;;;;;;;;;;4994900;28;20117;-69
2021/07/03 09:19:04;;;;;;;8.77;3.17;;;;;;;;;;4995285;28;20129;-70
2021/07/03 09:21:35;;;;;;;6.35;3.90;;;;;;;;;;5000563;28;20102;-74
2021/07/03 09:24:11;;;;;;;12.73;3.60;;;;;;;;;;4994278;28;20026;-76
2021/07/03 09:26:37;;;;;;;5.57;3.45;;;;;;;;;;4983035;28;20014;-71
2021/07/03 09:29:10;;;;;;;5.15;3.88;;;;;;;;;;4995337;28;20391;-73
2021/07/03 09:31:36;;;;;;;5.45;3.30;;;;;;;;;;4995707;28;20018;-74
2021/07/03 09:34:02;;;;;;;7.47;3.95;;;;;;;;;;4993694;28;20069;-70
2021/07/03 09:36:31;;;;;;;6.55;3.83;;;;;;;;;;4995702;28;20028;-78
2021/07/03 09:39:10;;;;;;;20.75;4.00;;;;;;;;;;4997580;28;20449;-72
2021/07/03 09:41:37;;;;;;;6.72;3.60;;;;;;;;;;4977881;28;20026;-68
2021/07/03 09:44:11;;;;;;;4.45;3.28;;;;;;;;;;4988629;28;20090;-76
2021/07/03 09:46:41;;;;;;;5.10;3.40;;;;;;;;;;4991391;28;20444;-66
2021/07/03 09:49:09;;;;;;;5.22;3.25;;;;;;;;;;4985805;28;20113;-74
2021/07/03 09:51:54;;;;;;;6.50;3.30;;;;;;;;;;4996298;28;20379;-72
2021/07/03 09:54:21;;;;;;;4.93;3.00;;;;;;;;;;4991432;28;20494;-77
2021/07/03 09:56:47;;;;;;;5.18;3.53;;;;;;;;;;4988587;28;20026;-74
2021/07/03 09:59:14;;;;;;;6.10;3.08;;;;;;;;;;4993120;28;20037;-78
2021/07/03 10:01:41;;;;;;;4.72;3.40;;;;;;;;;;4988715;28;20045;-67
2021/07/03 10:04:08;;;;;;;3.38;3.05;;;;;;;;;;4989680;28;20022;-72
2021/07/03 10:06:34;;;;;;;5.05;3.53;;;;;;;;;;4993734;28;20027;-69
2021/07/03 10:09:02;;;;;;;5.18;3.22;;;;;;;;;;4990190;28;20507;-68
2021/07/03 10:11:29;;;;;;;4.47;3.20;;;;;;;;;;4991265;28;20018;-73
2021/07/03 10:14:03;;;;;;;4.93;3.50;;;;;;;;;;4987212;28;20023;-74
2021/07/03 10:16:30;;;;;;;4.82;3.28;;;;;;;;;;4990366;28;20089;-67
2021/07/03 10:19:09;;;;;;;5.40;3.28;;;;;;;;;;4978419;28;20433;-68
2021/07/03 10:21:35;;;;;;;6.43;3.22;;;;;;;;;;4991522;28;20018;-78
2021/07/03 10:24:02;;;;;;;4.45;3.10;;;;;;;;;;4978600;28;20031;-77
2021/07/03 10:26:37;;;;;;;6.75;3.33;;;;;;;;;;4994431;28;20476;-72
2021/07/03 10:29:14;;;;;;;5.10;3.22;;;;;;;;;;4989875;28;20034;-79
2021/07/03 10:32:04;;;;;;;4.25;3.30;;;;;;;;;;4987712;28;20450;-78
2021/07/03 10:34:33;;;;;;;5.05;3.00;;;;;;;;;;4991342;28;20039;-79
2021/07/03 10:37:03;;;;;;;6.40;3.70;;;;;;;;;;4988543;28;20379;-69
2021/07/03 10:39:41;;;;;;;4.32;3.50;;;;;;;;;;4994657;28;20038;-66
2021/07/03 10:42:08;;;;;;;17.23;3.58;;;;;;;;;;4991268;28;20030;-71
2021/07/03 10:44:38;;;;;;;6.97;3.70;;;;;;;;;;4985968;28;20384;-66
2021/07/03 10:47:11;;;;;;;7.03;3.38;;;;;;;;;;4989299;28;20027;-70
2021/07/03 10:49:38;;;;;;;6.43;3.70;;;;;;;;;;4990289;28;20082;-65
2021/07/03 10:52:17;;;;;;;6.68;3.38;;;;;;;;;;4984828;28;20502;-70
2021/07/03 10:54:44;;;;;;;7.05;3.30;;;;;;;;;;4987255;28;20073;-74
2021/07/03 10:57:11;;;;;;;6.70;3.17;;;;;;;;;;4988144;28;20022;-67
2021/07/03 10:59:38;;;;;;;5.85;3.00;;;;;;;;;;4985135;28;20035;-65
2021/07/03 11:02:13;;;;;;;5.60;3.15;;;;;;;;;;4983760;28;20076;-71
2021/07/03 11:05:00;;;;;;;4.07;2.97;;;;;;;;;;4988708;28;20064;-81
2021/07/03 11:07:30;;;;;;;4.88;3.40;;;;;;;;;;4978778;28;20472;-75
2021/07/03 11:10:15;;;;;;;6.00;3.25;;;;;;;;;;4992557;28;20022;-66
2021/07/03 11:12:52;;;;;;;4.57;2.80;;;;;;;;;;4989715;28;20275;-65
2021/07/03 11:15:21;;;;;;;4.60;3.50;;;;;;;;;;4978234;28;20037;-68
2021/07/03 11:17:47;;;;;;;4.00;3.10;;;;;;;;;;4981245;28;20137;-70
2021/07/03 11:20:27;;;;;;;4.45;3.03;;;;;;;;;;4983283;28;20035;-68
2021/07/03 11:23:10;;;;;;;6.47;2.92;;;;;;;;;;4976759;28;20173;-70
2021/07/03 11:25:37;;;;;;;4.15;2.90;;;;;;;;;;4989433;28;20404;-69
2021/07/03 11:28:13;;;;;;;6.32;3.00;;;;;;;;;;4989906;28;20037;-67
2021/07/03 11:30:41;;;;;;;5.75;3.00;;;;;;;;;;4991168;28;20027;-69
2021/07/03 11:33:07;;;;;;;5.88;2.83;;;;;;;;;;4978187;28;20027;-84
2021/07/03 11:35:34;;;;;;;5.10;3.20;;;;;;;;;;4984654;28;20042;-77
2021/07/03 11:38:01;;;;;;;5.60;2.95;;;;;;;;;;4991653;28;20037;-68
2021/07/03 11:40:29;;;;;;;10.38;2.92;;;;;;;;;;4991831;28;20022;-87
2021/07/03 11:42:57;;;;;;;6.60;3.30;;;;;;;;;;4978263;28;20125;-67
2021/07/03 11:45:25;;;;;;;5.55;3.10;;;;;;;;;;4979972;28;20031;-75
2021/07/03 11:47:55;;;;;;;4.28;3.00;;;;;;;;;;4990333;28;20117;-71
2021/07/03 11:50:21;;;;;;;7.05;2.90;;;;;;;;;;4991073;28;20022;-68
2021/07/03 11:52:57;;;;;;;6.20;3.75;;;;;;;;;;4986460;28;20109;-68
2021/07/03 11:55:26;;;;;;;6.95;3.00;;;;;;;;;;4985907;28;20069;-70
2021/07/03 11:57:52;;;;;;;6.28;3.60;;;;;;;;;;4990020;28;20038;-66
2021/07/03 12:00:20;;;;;;;7.28;3.30;;;;;;;;;;4992727;28;20028;-67
2021/07/03 12:02:47;;;;;;;8.20;3.63;;;;;;;;;;4988106;28;20472;-65
2021/07/03 12:05:14;;;;;;;3.75;2.95;;;;;;;;;;4986594;28;20580;-72
2021/07/03 12:19:19;;;;;;;8.60;3.22;;;;;;;;;;5091067;27;20390;-66
2021/07/03 12:21:46;;;;;;;6.05;2.83;;;;;;;;;;5086796;28;20035;-72
2021/07/03 12:24:12;;;;;;;5.70;2.83;;;;;;;;;;5072640;28;20084;-74
2021/07/03 12:26:41;;;;;;;5.35;2.95;;;;;;;;;;5070973;28;20032;-72
2021/07/03 12:29:07;;;;;;;5.40;2.88;;;;;;;;;;5083576;28;20426;-69
2021/07/03 12:31:44;;;;;;;5.10;2.88;;;;;;;;;;5070157;28;20071;-71
2021/07/03 12:34:11;;;;;;;6.78;3.25;;;;;;;;;;5073165;28;20041;-72
2021/07/03 12:36:46;;;;;;;4.03;3.05;;;;;;;;;;5072283;28;20032;-64
2021/07/03 12:39:14;;;;;;;6.32;3.20;;;;;;;;;;5080550;28;20052;-72
2021/07/03 12:41:42;;;;;;;5.22;2.88;;;;;;;;;;5079602;28;20587;-69
2021/07/03 12:44:08;;;;;;;5.03;2.80;;;;;;;;;;5086946;28;20032;-68
2021/07/03 12:46:36;;;;;;;5.82;3.25;;;;;;;;;;5083509;28;20036;-72
2021/07/03 12:49:02;;;;;;;4.03;2.88;;;;;;;;;;5081829;28;20494;-71
2021/07/03 12:51:31;;;;;;;6.40;3.30;;;;;;;;;;5068320;28;20032;-73
2021/07/03 12:53:59;;;;;;;4.93;3.47;;;;;;;;;;5066740;28;20035;-73
2021/07/03 12:56:25;;;;;;;6.03;3.35;;;;;;;;;;5067583;28;20478;-65
2021/07/03 12:58:59;;;;;;;6.10;3.53;;;;;;;;;;5066795;28;20025;-63
2021/07/03 13:01:43;;;;;;;4.93;2.90;;;;;;;;;;5068381;28;20025;-67
2021/07/03 13:04:11;;;;;;;4.00;2.80;;;;;;;;;;5067028;28;20482;-71
2021/07/03 13:06:37;;;;;;;5.68;2.88;;;;;;;;;;5067428;28;20033;-74
2021/07/03 13:09:04;;;;;;;4.15;2.83;;;;;;;;;;5063852;28;20108;-73
2021/07/03 13:11:30;;;;;;;4.90;2.80;;;;;;;;;;5049094;28;20018;-75
2021/07/03 13:13:56;;;;;;;5.90;3.22;;;;;;;;;;5050059;28;20379;-73
2021/07/03 13:16:22;;;;;;;6.95;3.35;;;;;;;;;;5057513;28;20124;-72
2021/07/03 13:18:49;;;;;;;5.20;2.97;;;;;;;;;;5059456;28;20029;-64
2021/07/03 13:21:15;;;;;;;4.57;2.90;;;;;;;;;;5054670;28;20027;-73
2021/07/03 13:23:41;;;;;;;3.15;2.70;;;;;;;;;;5066070;28;20063;-72
2021/07/03 13:26:10;;;;;;;5.53;2.92;;;;;;;;;;5054600;28;20044;-73
2021/07/03 13:28:36;;;;;;;5.95;2.80;;;;;;;;;;5054572;28;20111;-72
2021/07/03 13:31:05;;;;;;;5.00;2.80;;;;;;;;;;5048151;28;20036;-73
2021/07/03 13:33:31;;;;;;;6.72;3.15;;;;;;;;;;5049335;28;20032;-69
2021/07/03 13:35:57;;;;;;;3.95;2.88;;;;;;;;;;5054398;28;20163;-71
2021/07/03 13:38:23;;;;;;;8.73;3.20;;;;;;;;;;5054226;28;20109;-72
2021/07/03 13:40:49;;;;;;;7.70;3.30;;;;;;;;;;5054327;28;20024;-64
2021/07/03 13:43:16;;;;;;;7.97;3.03;;;;;;;;;;5052541;28;20478;-72
2021/07/03 13:45:42;;;;;;;5.75;3.40;;;;;;;;;;5043100;28;20044;-71
2021/07/03 13:48:09;;;;;;;4.05;2.95;;;;;;;;;;5046423;28;20078;-69
2021/07/03 13:50:35;;;;;;;10.10;2.90;;;;;;;;;;5052988;28;20014;-72
2021/07/03 13:53:01;;;;;;;6.30;2.95;;;;;;;;;;5050381;28;20029;-73
2021/07/03 13:55:27;;;;;;;5.78;3.00;;;;;;;;;;5050413;28;20487;-69
2021/07/03 13:57:53;;;;;;;5.00;2.67;;;;;;;;;;5045122;28;20029;-66
2021/07/03 14:00:19;;;;;;;6.85;3.20;;;;;;;;;;5051665;28;20021;-69
2021/07/03 14:02:45;;;;;;;4.22;3.00;;;;;;;;;;5040892;28;20033;-70
2021/07/03 14:05:12;;;;;;;3.28;2.53;;;;;;;;;;5035919;28;20383;-65
2021/07/03 14:07:38;;;;;;;5.32;2.95;;;;;;;;;;5035143;28;20040;-71
2021/07/03 14:10:05;;;;;;;5.32;2.90;;;;;;;;;;5036882;28;20025;-68
2021/07/03 14:12:32;;;;;;;5.13;2.92;;;;;;;;;;5034782;28;20033;-71
2021/07/03 14:15:01;;;;;;;4.40;3.00;;;;;;;;;;5035677;28;20028;-71
2021/07/03 14:17:29;;;;;;;6.63;4.38;;;;;;;;;;5049381;28;20044;-71
2021/07/03 14:19:55;;;;;;;5.45;3.20;;;;;;;;;;5047192;28;20566;-70
2021/07/03 14:22:21;;;;;;;8.48;5.28;;;;;;;;;;5051435;28;20100;-72
2021/07/03 14:24:47;;;;;;;5.97;3.45;;;;;;;;;;5050738;28;20021;-67
2021/07/03 14:27:14;;;;;;;10.18;3.17;;;;;;;;;;5053282;28;20036;-69
2021/07/03 14:29:40;;;;;;;8.05;3.63;;;;;;;;;;5039089;28;20021;-68
2021/07/03 14:32:06;;;;;;;6.13;3.50;;;;;;;;;;5045531;28;20028;-70
2021/07/03 14:34:32;;;;;;;5.18;3.55;;;;;;;;;;5053304;28;20048;-69
2021/07/03 14:36:58;;;;;;;5.60;3.40;;;;;;;;;;5053354;28;20493;-70
2021/07/03 14:39:24;;;;;;;5.13;3.00;;;;;;;;;;5052455;28;20483;-69
2021/07/03 14:41:51;;;;;;;5.10;2.95;;;;;;;;;;5050762;28;20060;-64
2021/07/03 14:44:18;;;;;;;4.28;2.50;;;;;;;;;;5053134;28;20024;-70
2021/07/03 14:46:44;;;;;;;6.40;3.00;;;;;;;;;;5052973;28;20036;-69
2021/07/03 14:49:10;;;;;;;4.72;3.28;;;;;;;;;;5053317;28;20022;-70
2021/07/03 14:51:36;;;;;;;6.03;3.00;;;;;;;;;;5039311;28;20022;-71
2021/07/03 14:54:03;;;;;;;5.07;3.47;;;;;;;;;;5052805;28;20021;-70
2021/07/03 14:56:29;;;;;;;5.60;3.40;;;;;;;;;;5052963;28;20067;-71
2021/07/03 14:58:56;;;;;;;5.05;3.20;;;;;;;;;;5030175;28;20118;-69